Terminal Aerodrome Forecast
Issued by NWS Wilmington, OH

Home | Current Version | Previous Version | Text Only | Print | Product List | Glossary On
Versions: 1 2 3 4 5 6 7 8 9 10 11 12 13 14 15 16 17 18 19 20 21 22
903
FTUS41 KILN 252325
TAFCVG
TAF
KCVG 252325Z 2600/2706 19006KT P6SM FEW050 SCT150 SCT250
     FM260600 19005KT P6SM VCSH BKN040 BKN080
     FM261200 20006KT P6SM BKN040 BKN100
     FM261600 23009KT P6SM SCT040
     FM270100 20006KT P6SM FEW040 SCT250=

USA.gov is the U.S. government's official web portal to all federal, state and local government web resources and services.